Time;durP1;ratioP1;P1;durP2;ratioP2;P2;SDS_P1;SDS_P2;PMS_P1;PMS_P2;Temp;Humidity;BMP_temperature;BMP_pressure;BME280_temperature;BME280_humidity;BME280_pressure;Samples;Min_cycle;Max_cycle;Signal;HPM_P1;HPM_P2
2021/10/20 00:01:35;;;;;;;;;11.00;9.00;;;;;19.56;57.69;101152.47;4948017;28;45376;-61
2021/10/20 00:04:02;;;;;;;;;5.75;5.75;;;;;19.56;57.73;101142.63;4951770;28;45303;-60
2021/10/20 00:06:27;;;;;;;;;8.00;7.25;;;;;19.56;58.02;101150.66;4944383;28;45310;-60
2021/10/20 00:08:53;;;;;;;;;9.00;8.75;;;;;19.55;57.98;101132.09;4950920;28;45382;-57
2021/10/20 00:11:19;;;;;;;;;8.75;7.00;;;;;19.55;58.70;101130.25;4951148;28;45354;-60
2021/10/20 00:13:45;;;;;;;;;9.00;8.50;;;;;19.53;58.48;101133.06;4950120;28;45322;-60
2021/10/20 00:16:11;;;;;;;;;7.75;7.50;;;;;19.53;58.42;101130.41;4946092;28;45363;-59
2021/10/20 00:18:36;;;;;;;;;13.50;9.25;;;;;19.53;58.21;101132.22;4950356;28;45562;-59
2021/10/20 00:21:05;;;;;;;;;8.50;8.50;;;;;19.53;58.68;101122.38;4951266;28;46032;-59
2021/10/20 00:23:31;;;;;;;;;11.00;9.75;;;;;19.53;58.41;101127.72;4949988;28;45494;-60
2021/10/20 00:25:57;;;;;;;;;12.25;9.00;;;;;19.55;58.68;101118.72;4947610;28;45251;-60
2021/10/20 00:28:22;;;;;;;;;9.50;8.00;;;;;19.55;58.46;101116.06;4942652;28;45361;-61
2021/10/20 00:30:48;;;;;;;;;9.50;8.50;;;;;19.55;58.71;101114.22;4948749;28;45436;-59
2021/10/20 00:33:13;;;;;;;;;7.00;7.00;;;;;19.55;58.62;101110.72;4947852;28;45806;-60
2021/10/20 00:35:39;;;;;;;;;10.25;9.00;;;;;19.54;58.97;101104.53;4951099;28;45627;-60
2021/10/20 00:38:04;;;;;;;;;8.00;8.00;;;;;19.55;58.97;101097.34;4952313;28;45437;-60
2021/10/20 00:40:30;;;;;;;;;13.25;10.00;;;;;19.55;58.67;101092.84;4953601;28;45499;-60
2021/10/20 00:42:55;;;;;;;;;12.50;8.25;;;;;19.54;59.15;101093.84;4951694;28;45433;-60
2021/10/20 00:45:21;;;;;;;;;8.75;8.75;;;;;19.52;58.81;101091.31;4953112;28;45448;-60
2021/10/20 00:47:46;;;;;;;;;9.00;8.00;;;;;19.51;58.92;101089.63;4953410;28;45315;-60
2021/10/20 00:50:15;;;;;;;;;9.00;8.00;;;;;19.51;59.15;101080.72;4953700;28;45412;-60
2021/10/20 00:52:41;;;;;;;;;8.00;8.00;;;;;19.49;59.04;101077.38;4953620;28;45247;-60
2021/10/20 00:55:08;;;;;;;;;10.50;7.75;;;;;19.50;59.00;101071.03;4945542;28;45317;-60
2021/10/20 00:57:34;;;;;;;;;10.75;9.00;;;;;19.50;59.07;101081.72;4945426;28;45382;-60
2021/10/20 01:00:04;;;;;;;;;10.00;10.00;;;;;19.49;59.42;101078.22;4945216;28;45397;-60
2021/10/20 01:02:29;;;;;;;;;9.00;9.00;;;;;19.48;59.35;101068.50;4932811;28;45318;-61
2021/10/20 01:04:55;;;;;;;;;9.75;9.00;;;;;19.47;59.79;101069.50;4945524;28;45346;-59
2021/10/20 01:07:22;;;;;;;;;8.00;7.00;;;;;19.47;59.65;101069.50;4945592;28;45276;-59
2021/10/20 01:09:48;;;;;;;;;9.00;8.00;;;;;19.47;59.41;101069.50;4945169;28;46059;-59
2021/10/20 01:12:16;;;;;;;;;10.50;9.25;;;;;19.49;59.88;101072.88;4945337;28;45377;-59
2021/10/20 01:14:42;;;;;;;;;9.25;9.25;;;;;19.49;59.46;101072.03;4945343;28;45338;-59
2021/10/20 01:17:07;;;;;;;;;9.25;8.50;;;;;19.48;59.90;101056.97;4945273;28;45341;-59
2021/10/20 01:19:34;;;;;;;;;12.25;10.75;;;;;19.48;60.04;101052.47;4944985;28;46360;-58
2021/10/20 01:21:59;;;;;;;;;6.25;6.25;;;;;19.47;60.07;101048.13;4945531;28;45163;-59
2021/10/20 01:24:24;;;;;;;;;10.50;8.25;;;;;19.46;59.71;101042.94;4944982;28;45183;-59
2021/10/20 01:26:51;;;;;;;;;10.50;8.00;;;;;19.45;60.17;101058.13;4945604;28;45504;-58
2021/10/20 01:29:18;;;;;;;;;12.50;11.75;;;;;19.43;60.02;101049.41;4944674;28;46118;-58
2021/10/20 01:31:55;;;;;;;;;8.00;8.00;;;;;19.43;60.15;101040.50;4944884;28;45877;-59
2021/10/20 01:34:21;;;;;;;;;8.75;8.75;;;;;19.44;60.30;101031.53;4947584;28;45407;-59
2021/10/20 01:36:51;;;;;;;;;9.25;8.50;;;;;19.43;59.89;101043.19;4944778;28;45560;-58
2021/10/20 01:39:18;;;;;;;;;9.50;9.50;;;;;19.41;60.04;101035.31;4944528;28;45343;-59
2021/10/20 01:41:45;;;;;;;;;9.50;8.75;;;;;19.41;60.42;101039.81;4944247;28;45351;-59
2021/10/20 01:44:10;;;;;;;;;9.00;9.00;;;;;19.39;60.41;101034.63;4945059;28;45590;-59
2021/10/20 01:46:36;;;;;;;;;10.25;7.75;;;;;19.38;60.71;101032.09;4943646;28;45251;-59
2021/10/20 01:49:02;;;;;;;;;13.00;9.00;;;;;19.35;60.33;101024.34;4944821;28;45293;-59
2021/10/20 01:51:28;;;;;;;;;9.00;8.50;;;;;19.35;60.38;101019.00;4945001;28;45266;-58
2021/10/20 01:53:54;;;;;;;;;9.00;8.00;;;;;19.33;60.39;101005.78;4944759;28;45487;-58
2021/10/20 01:56:20;;;;;;;;;9.75;9.75;;;;;19.33;60.35;101002.28;4944794;28;45288;-59
2021/10/20 01:58:46;;;;;;;;;8.25;8.25;;;;;19.33;60.37;101003.13;4944672;28;45223;-58
2021/10/20 02:01:12;;;;;;;;;8.50;8.50;;;;;19.33;60.48;100991.59;4943516;28;45242;-58
2021/10/20 02:03:39;;;;;;;;;13.00;10.75;;;;;19.30;60.87;100984.72;4944736;28;45231;-59
2021/10/20 02:06:10;;;;;;;;;12.50;11.50;;;;;19.31;60.86;100986.41;4944662;28;45317;-59
2021/10/20 02:08:36;;;;;;;;;9.75;9.50;;;;;19.31;60.87;100982.88;4943138;28;46735;-59
2021/10/20 02:11:03;;;;;;;;;12.75;12.50;;;;;19.32;61.27;100976.56;4944455;28;45410;-58
2021/10/20 02:13:29;;;;;;;;;11.75;10.00;;;;;19.31;61.07;100974.88;4944472;28;45535;-59
2021/10/20 02:15:55;;;;;;;;;10.75;9.00;;;;;19.30;61.35;100959.84;4944336;28;45278;-59
2021/10/20 02:18:20;;;;;;;;;10.50;10.50;;;;;19.29;60.86;100959.00;4944395;28;45457;-58
2021/10/20 02:20:46;;;;;;;;;10.75;9.00;;;;;19.29;61.43;100966.16;4944562;28;45299;-59
2021/10/20 02:23:12;;;;;;;;;12.00;10.25;;;;;19.28;61.08;100956.47;4944405;28;45507;-59
2021/10/20 02:25:38;;;;;;;;;11.50;11.00;;;;;19.27;61.49;100962.78;4944479;28;45333;-58
2021/10/20 02:28:03;;;;;;;;;12.25;11.75;;;;;19.26;61.60;100953.91;4943929;28;46344;-59
2021/10/20 02:30:29;;;;;;;;;10.25;10.00;;;;;19.25;61.18;100938.88;4944006;28;45250;-58
2021/10/20 02:32:55;;;;;;;;;9.50;9.50;;;;;19.24;61.40;100927.34;4943961;28;45334;-59
2021/10/20 02:35:21;;;;;;;;;10.50;10.00;;;;;19.27;61.55;100926.22;4944345;28;45177;-59
2021/10/20 02:37:47;;;;;;;;;9.75;9.25;;;;;19.26;61.69;100932.56;4944149;28;45461;-58
2021/10/20 02:40:14;;;;;;;;;11.00;11.00;;;;;19.25;61.60;100925.53;4943854;28;45439;-58
2021/10/20 02:42:40;;;;;;;;;14.00;12.50;;;;;19.24;61.72;100913.16;4943895;28;45515;-59
2021/10/20 02:45:09;;;;;;;;;11.00;11.00;;;;;19.22;61.82;100917.81;4944070;28;45378;-59
2021/10/20 02:47:34;;;;;;;;;13.00;10.00;;;;;19.20;61.33;100911.78;4937499;28;45287;-59
2021/10/20 02:50:00;;;;;;;;;9.25;9.25;;;;;19.17;61.92;100904.88;4943906;28;45237;-59
2021/10/20 02:52:25;;;;;;;;;13.50;10.75;;;;;19.16;61.80;100905.84;4944126;28;45204;-59
2021/10/20 02:54:51;;;;;;;;;10.25;9.50;;;;;19.15;62.00;100895.31;4943842;28;45264;-59
2021/10/20 02:57:16;;;;;;;;;10.25;9.00;;;;;19.14;62.00;100899.81;4943866;28;45240;-59
2021/10/20 02:59:42;;;;;;;;;9.50;9.50;;;;;19.13;61.95;100908.00;4943725;28;45263;-59
2021/10/20 03:02:07;;;;;;;;;12.50;11.00;;;;;19.11;61.67;100901.91;4943804;28;45342;-59
2021/10/20 03:04:33;;;;;;;;;12.00;11.00;;;;;19.10;61.60;100903.75;4943936;28;45234;-59
2021/10/20 03:06:58;;;;;;;;;12.25;11.00;;;;;19.09;62.17;100906.56;4943466;28;45756;-59
2021/10/20 03:09:24;;;;;;;;;11.00;9.00;;;;;19.08;62.00;100905.72;4943593;28;45476;-59
2021/10/20 03:11:49;;;;;;;;;10.50;9.00;;;;;19.06;61.91;100910.38;4943769;28;45313;-59
2021/10/20 03:14:15;;;;;;;;;15.25;13.25;;;;;19.02;61.71;100908.94;4943679;28;45321;-59
2021/10/20 03:16:43;;;;;;;;;9.50;9.50;;;;;19.01;61.90;100919.78;4943201;28;46062;-59
2021/10/20 03:19:09;;;;;;;;;14.50;10.25;;;;;18.99;62.31;100925.28;4943530;28;45263;-59
2021/10/20 03:21:34;;;;;;;;;11.00;11.00;;;;;18.99;62.09;100927.09;4943647;28;45229;-59
2021/10/20 03:24:00;;;;;;;;;13.75;12.50;;;;;18.97;62.30;100935.25;4941895;28;45260;-59
2021/10/20 03:26:25;;;;;;;;;10.00;10.00;;;;;18.97;62.27;100932.59;4942881;28;45668;-59
2021/10/20 03:28:51;;;;;;;;;17.25;13.50;;;;;18.95;62.13;100940.72;4943359;28;45231;-59
2021/10/20 03:31:17;;;;;;;;;13.50;10.25;;;;;18.93;62.43;100931.16;4943233;28;45164;-60
2021/10/20 03:33:43;;;;;;;;;16.75;12.00;;;;;18.91;62.17;100909.13;4943534;28;45318;-59
2021/10/20 03:36:09;;;;;;;;;12.75;12.00;;;;;18.90;62.78;100900.25;4943060;28;46149;-59
2021/10/20 03:38:34;;;;;;;;;11.50;10.50;;;;;18.86;62.83;100892.66;4943273;28;45349;-59
2021/10/20 03:41:00;;;;;;;;;16.75;13.75;;;;;18.88;62.39;100893.34;4943001;28;45326;-59
2021/10/20 03:43:25;;;;;;;;;11.00;9.50;;;;;18.86;62.33;100898.84;4943239;28;45351;-59
2021/10/20 03:45:51;;;;;;;;;14.00;12.50;;;;;18.85;62.50;100897.16;4942793;28;45670;-59
2021/10/20 03:48:17;;;;;;;;;13.00;12.00;;;;;18.82;62.83;100897.44;4936853;28;45558;-59
2021/10/20 03:50:42;;;;;;;;;14.00;12.00;;;;;18.82;62.57;100896.63;4943059;28;45362;-59
2021/10/20 03:53:08;;;;;;;;;15.50;14.50;;;;;18.80;62.70;100893.22;4943152;28;45389;-59
2021/10/20 03:55:33;;;;;;;;;15.50;12.25;;;;;18.76;62.66;100892.66;4942760;28;46211;-60
2021/10/20 03:58:00;;;;;;;;;12.75;10.25;;;;;18.75;63.25;100896.31;4942983;28;45183;-59
2021/10/20 04:00:26;;;;;;;;;10.75;10.75;;;;;18.75;62.85;100888.31;4942785;28;45254;-59
2021/10/20 04:02:52;;;;;;;;;12.00;12.00;;;;;18.76;63.28;100891.81;4942893;28;45260;-59
2021/10/20 04:05:19;;;;;;;;;11.25;11.00;;;;;18.74;63.03;100888.47;4942712;28;45390;-59
2021/10/20 04:07:46;;;;;;;;;11.00;11.00;;;;;18.72;62.76;100880.56;4942732;28;45417;-59
2021/10/20 04:10:17;;;;;;;;;11.00;10.00;;;;;18.76;62.89;100868.66;4942074;28;45394;-60
2021/10/20 04:12:43;;;;;;;;;12.00;11.50;;;;;18.77;63.20;100854.31;4942804;28;45243;-60
2021/10/20 04:15:10;;;;;;;;;14.00;12.00;;;;;18.77;63.20;100848.13;4942713;28;45370;-60
2021/10/20 04:17:37;;;;;;;;;10.75;10.75;;;;;18.75;62.86;100844.78;4942506;28;45392;-61
2021/10/20 04:20:07;;;;;;;;;15.00;13.25;;;;;18.73;63.29;100852.09;4942806;28;45504;-61
2021/10/20 04:22:33;;;;;;;;;13.25;12.75;;;;;18.69;63.06;100846.19;4942653;28;45207;-60
2021/10/20 04:24:59;;;;;;;;;12.75;11.25;;;;;18.65;63.10;100856.31;4942232;28;46206;-60
2021/10/20 04:27:24;;;;;;;;;12.50;10.50;;;;;18.65;62.83;100866.09;4942178;28;45425;-60
2021/10/20 04:29:50;;;;;;;;;14.50;11.75;;;;;18.66;63.01;100854.47;4942579;28;45495;-60
2021/10/20 04:32:15;;;;;;;;;12.00;12.00;;;;;18.66;63.09;100855.31;4942468;28;45409;-60
2021/10/20 04:34:41;;;;;;;;;16.00;12.50;;;;;18.67;63.16;100853.47;4942425;28;46176;-60
2021/10/20 04:37:06;;;;;;;;;12.75;11.50;;;;;18.67;62.99;100846.31;4942282;28;45365;-60
2021/10/20 04:39:32;;;;;;;;;13.00;11.00;;;;;18.67;63.37;100837.47;4942066;28;45459;-60
2021/10/20 04:41:57;;;;;;;;;15.25;11.25;;;;;18.67;63.01;100865.00;4941941;28;45330;-60
2021/10/20 04:44:23;;;;;;;;;11.25;11.25;;;;;18.67;63.47;100861.50;4942121;28;45979;-60
2021/10/20 04:46:48;;;;;;;;;19.50;16.75;;;;;18.64;64.16;100861.72;4936014;28;45246;-60
2021/10/20 04:49:14;;;;;;;;;15.50;12.50;;;;;18.64;63.65;100859.06;4942395;28;45389;-61
2021/10/20 04:51:39;;;;;;;;;12.25;11.50;;;;;18.66;63.95;100857.97;4942234;28;45542;-60
2021/10/20 04:54:05;;;;;;;;;14.50;11.25;;;;;18.66;63.75;100876.66;4941989;28;46451;-60
2021/10/20 04:56:30;;;;;;;;;15.25;12.75;;;;;18.67;64.01;100882.84;4941975;28;45176;-61
2021/10/20 04:58:56;;;;;;;;;12.75;11.00;;;;;18.67;63.62;100866.81;4942412;28;45236;-60
2021/10/20 05:01:21;;;;;;;;;11.50;10.50;;;;;18.67;63.51;100899.69;4941981;28;45168;-60
2021/10/20 05:03:46;;;;;;;;;17.00;14.00;;;;;18.68;63.51;100871.19;4942142;28;45249;-61
2021/10/20 05:06:12;;;;;;;;;13.00;12.75;;;;;18.68;63.60;100873.84;4941929;28;45303;-60
2021/10/20 05:08:37;;;;;;;;;11.50;11.50;;;;;18.69;63.89;100872.84;4942106;28;45221;-60
2021/10/20 05:11:03;;;;;;;;;11.25;11.00;;;;;18.71;63.97;100870.03;4942145;28;45630;-60
2021/10/20 05:13:28;;;;;;;;;12.25;11.75;;;;;18.73;64.00;100868.94;4942115;28;45989;-61
2021/10/20 05:15:54;;;;;;;;;17.75;14.50;;;;;18.73;63.67;100868.94;4941702;28;45334;-60
2021/10/20 05:18:19;;;;;;;;;11.00;10.25;;;;;18.74;63.78;100875.97;4942217;28;45255;-60
2021/10/20 05:20:45;;;;;;;;;12.00;11.75;;;;;18.74;63.62;100837.75;4942008;28;45388;-60
2021/10/20 05:23:10;;;;;;;;;15.25;12.75;;;;;18.75;63.54;100860.78;4944864;28;45341;-60
2021/10/20 05:25:38;;;;;;;;;13.00;12.50;;;;;18.75;63.41;100855.44;4945132;28;45302;-60
2021/10/20 05:28:05;;;;;;;;;8.25;8.25;;;;;18.75;63.81;100826.94;4945103;28;45342;-60
2021/10/20 05:30:30;;;;;;;;;16.75;13.75;;;;;18.75;63.53;100837.63;4944836;28;45250;-60
2021/10/20 05:32:56;;;;;;;;;11.75;10.50;;;;;18.75;64.08;100831.44;4944978;28;45347;-61
2021/10/20 05:35:21;;;;;;;;;12.75;12.00;;;;;18.77;63.86;100826.78;4945198;28;45259;-60
2021/10/20 05:37:50;;;;;;;;;13.50;12.50;;;;;18.78;63.51;100807.97;4945195;28;45235;-60
2021/10/20 05:40:15;;;;;;;;;12.00;11.00;;;;;18.80;63.33;100797.13;4944635;28;45505;-60
2021/10/20 05:42:41;;;;;;;;;12.00;11.00;;;;;18.78;63.58;100801.78;4944641;28;46135;-61
2021/10/20 05:45:07;;;;;;;;;27.25;15.25;;;;;18.79;63.65;100790.13;4944728;28;45372;-60
2021/10/20 05:47:32;;;;;;;;;12.75;11.00;;;;;18.79;64.15;100790.97;4944223;28;45358;-60
2021/10/20 05:49:58;;;;;;;;;9.25;9.00;;;;;18.79;63.89;100782.13;4947597;28;45302;-61
2021/10/20 05:52:23;;;;;;;;;13.75;12.25;;;;;18.78;63.81;100773.25;4944698;28;45655;-61
2021/10/20 05:54:49;;;;;;;;;10.50;8.25;;;;;18.81;63.70;100777.50;4943697;28;45342;-61
2021/10/20 05:57:14;;;;;;;;;12.75;11.00;;;;;18.83;63.62;100791.53;4944673;28;45332;-61
2021/10/20 05:59:40;;;;;;;;;13.00;11.00;;;;;18.83;64.03;100780.84;4944705;28;45405;-60
2021/10/20 06:02:09;;;;;;;;;13.75;11.25;;;;;18.82;63.70;100796.03;4944276;28;46067;-60
2021/10/20 06:04:35;;;;;;;;;11.25;11.25;;;;;18.80;63.66;100806.00;4944314;28;45420;-60
2021/10/20 06:07:00;;;;;;;;;13.50;12.50;;;;;18.80;63.55;100790.00;4944479;28;45240;-60
2021/10/20 06:09:26;;;;;;;;;9.75;9.75;;;;;18.81;63.69;100774.81;4944318;28;45472;-61
2021/10/20 06:11:51;;;;;;;;;14.75;12.75;;;;;18.81;63.39;100794.34;4944303;28;46007;-61
2021/10/20 06:14:17;;;;;;;;;12.50;11.50;;;;;18.81;64.04;100783.69;4944159;28;45349;-60
2021/10/20 06:16:42;;;;;;;;;13.25;12.50;;;;;18.82;63.88;100785.34;4944216;28;45641;-60
2021/10/20 06:19:08;;;;;;;;;14.25;10.25;;;;;18.82;63.81;100782.69;4944338;28;45333;-60
2021/10/20 06:21:34;;;;;;;;;10.75;10.75;;;;;18.83;64.06;100759.50;4944433;28;45231;-60
2021/10/20 06:23:59;;;;;;;;;10.50;10.50;;;;;18.83;64.00;100752.34;4943638;28;45362;-60
2021/10/20 06:26:25;;;;;;;;;14.00;11.50;;;;;18.82;63.78;100745.31;4944378;28;45361;-60
2021/10/20 06:28:51;;;;;;;;;12.50;9.75;;;;;18.79;63.72;100728.75;4944079;28;45254;-60
2021/10/20 06:31:16;;;;;;;;;12.75;12.00;;;;;18.79;64.13;100736.75;4943214;28;45372;-60
2021/10/20 06:33:42;;;;;;;;;11.75;8.75;;;;;18.81;64.44;100745.47;4943780;28;45270;-60
2021/10/20 06:36:29;;;;;;;;;10.75;10.50;;;;;18.81;64.35;100742.81;4944023;28;45352;-60
2021/10/20 06:38:55;;;;;;;;;13.50;12.00;;;;;18.81;64.80;100721.44;4943877;28;45496;-62
2021/10/20 06:41:21;;;;;;;;;17.25;15.00;;;;;18.80;65.23;100727.75;4943672;28;46251;-60
2021/10/20 06:43:47;;;;;;;;;11.50;11.00;;;;;18.73;65.26;100738.19;4943952;28;45335;-60
2021/10/20 06:46:13;;;;;;;;;14.50;12.25;;;;;18.69;65.17;100729.59;4943891;28;45400;-60
2021/10/20 06:48:38;;;;;;;;;13.00;11.75;;;;;18.68;65.55;100721.75;4944049;28;45643;-61
2021/10/20 06:51:07;;;;;;;;;14.00;13.75;;;;;18.66;65.78;100732.56;4943819;28;45315;-61
2021/10/20 06:53:33;;;;;;;;;15.25;13.50;;;;;18.64;65.93;100707.84;4943963;28;45210;-60
2021/10/20 06:56:00;;;;;;;;;13.25;11.75;;;;;18.62;66.26;100708.94;4942970;28;45447;-60
2021/10/20 06:58:26;;;;;;;;;14.75;14.25;;;;;18.59;66.85;100717.25;4943902;28;45550;-60
2021/10/20 07:00:51;;;;;;;;;16.00;13.75;;;;;18.53;66.69;100707.97;4943077;28;45403;-60
2021/10/20 07:03:17;;;;;;;;;14.25;12.75;;;;;18.49;67.41;100706.59;4943705;28;45357;-60
2021/10/20 07:05:42;;;;;;;;;14.00;12.00;;;;;18.44;67.00;100695.50;4943313;28;45328;-60
2021/10/20 07:08:08;;;;;;;;;14.75;14.75;;;;;18.40;67.77;100707.41;4943712;28;45348;-60
2021/10/20 07:10:36;;;;;;;;;17.75;15.75;;;;;18.37;67.68;100694.38;4943407;28;46379;-60
2021/10/20 07:13:01;;;;;;;;;15.00;12.25;;;;;18.34;68.21;100686.69;4943628;28;45300;-60
2021/10/20 07:15:27;;;;;;;;;23.00;19.75;;;;;18.31;68.12;100692.28;4943653;28;45264;-60
2021/10/20 07:17:52;;;;;;;;;18.75;17.00;;;;;18.29;67.89;100684.44;4943269;28;45342;-60
2021/10/20 07:20:18;;;;;;;;;15.25;14.00;;;;;18.25;68.17;100698.19;4943018;28;45818;-60
2021/10/20 07:22:43;;;;;;;;;16.50;15.00;;;;;18.22;67.91;100706.47;4943313;28;45457;-60
2021/10/20 07:25:11;;;;;;;;;18.25;14.25;;;;;18.20;68.42;100697.78;4943336;28;45485;-61
2021/10/20 07:27:38;;;;;;;;;16.50;14.75;;;;;18.21;68.42;100694.13;4943165;28;45251;-61
2021/10/20 07:30:06;;;;;;;;;14.25;13.50;;;;;18.20;68.50;100692.44;4943143;28;45323;-60
2021/10/20 07:32:32;;;;;;;;;19.00;15.50;;;;;18.19;69.18;100696.94;4942303;28;45310;-59
2021/10/20 07:34:57;;;;;;;;;14.50;12.25;;;;;18.19;69.00;100701.41;4943221;28;45302;-60
2021/10/20 07:37:23;;;;;;;;;14.25;14.25;;;;;18.20;69.05;100708.44;4942726;28;45394;-60
2021/10/20 07:39:48;;;;;;;;;14.00;12.00;;;;;18.20;68.90;100708.44;4942577;28;45546;-59
2021/10/20 07:42:14;;;;;;;;;17.75;14.00;;;;;18.22;68.94;100701.13;4942988;28;45475;-59
2021/10/20 07:44:39;;;;;;;;;14.25;14.25;;;;;18.20;68.74;100703.09;4942549;28;45336;-59
2021/10/20 07:47:05;;;;;;;;;18.75;16.25;;;;;18.22;69.25;100707.31;4942867;28;45533;-60
2021/10/20 07:49:30;;;;;;;;;19.50;14.00;;;;;18.24;69.15;100715.16;4943071;28;45830;-59
2021/10/20 07:51:57;;;;;;;;;13.00;12.75;;;;;18.22;69.02;100719.78;4943338;28;45357;-60
2021/10/20 07:54:26;;;;;;;;;19.00;17.00;;;;;18.23;69.21;100737.47;4943212;28;45342;-60
2021/10/20 07:56:52;;;;;;;;;14.00;12.50;;;;;18.22;68.92;100751.78;4942927;28;45585;-60
2021/10/20 07:59:19;;;;;;;;;13.50;12.50;;;;;18.24;69.05;100756.00;4941729;28;45372;-61
2021/10/20 08:01:44;;;;;;;;;14.75;11.75;;;;;18.25;68.90;100747.03;4942368;28;45305;-58
2021/10/20 08:04:10;;;;;;;;;16.50;14.75;;;;;18.26;69.41;100753.22;4942804;28;45306;-60
2021/10/20 08:06:35;;;;;;;;;16.50;15.75;;;;;18.30;69.02;100754.59;4942792;28;45454;-63
2021/10/20 08:09:01;;;;;;;;;19.25;17.00;;;;;18.34;69.44;100759.53;4957417;28;45830;-61
2021/10/20 08:11:26;;;;;;;;;16.25;15.00;;;;;18.34;69.35;100750.69;4942668;28;45322;-64
2021/10/20 08:13:52;;;;;;;;;17.75;15.00;;;;;18.35;69.49;100739.03;4942943;28;45351;-63
2021/10/20 08:16:17;;;;;;;;;17.75;12.75;;;;;18.36;68.98;100738.03;4942704;28;45284;-63
2021/10/20 08:18:43;;;;;;;;;17.75;14.25;;;;;18.41;69.37;100741.13;4942587;28;45404;-62
2021/10/20 08:21:08;;;;;;;;;15.50;14.00;;;;;18.44;69.12;100745.34;4957486;28;45239;-63
2021/10/20 08:23:34;;;;;;;;;15.25;13.50;;;;;18.45;69.28;100745.19;4942716;28;45247;-63
2021/10/20 08:26:00;;;;;;;;;17.00;13.50;;;;;18.47;68.79;100743.22;4941993;28;45500;-63
2021/10/20 08:28:25;;;;;;;;;16.00;15.50;;;;;18.50;69.38;100736.78;4940714;28;46218;-63
2021/10/20 08:30:51;;;;;;;;;14.25;14.25;;;;;18.53;69.67;100749.81;4941765;28;45496;-64
2021/10/20 08:33:17;;;;;;;;;14.25;13.50;;;;;18.54;68.97;100741.66;4945122;28;45547;-61
2021/10/20 08:35:43;;;;;;;;;12.25;11.50;;;;;18.54;68.98;100755.00;4942486;28;45407;-61
2021/10/20 08:38:08;;;;;;;;;17.00;16.00;;;;;18.54;69.21;100754.16;4942011;28;45521;-62
2021/10/20 08:40:45;;;;;;;;;17.25;15.00;;;;;18.54;68.80;100749.66;4940711;28;45417;-62
2021/10/20 08:43:11;;;;;;;;;14.50;14.50;;;;;18.55;69.23;100739.84;4941032;28;45431;-63
2021/10/20 08:45:36;;;;;;;;;19.75;15.75;;;;;18.58;69.67;100745.75;4941410;28;45467;-62
2021/10/20 08:48:04;;;;;;;;;15.75;15.75;;;;;18.61;69.54;100741.94;4941890;28;46545;-62
2021/10/20 08:50:32;;;;;;;;;15.75;14.00;;;;;18.60;69.22;100748.28;4941888;28;45314;-62
2021/10/20 08:52:58;;;;;;;;;20.50;18.00;;;;;18.61;69.54;100742.78;4942274;28;45240;-62
2021/10/20 08:55:24;;;;;;;;;20.50;18.00;;;;;18.61;68.93;100755.28;4942901;28;45307;-64
2021/10/20 08:57:50;;;;;;;;;19.00;18.25;;;;;18.62;69.22;100759.63;4945403;28;45465;-64
2021/10/20 09:00:16;;;;;;;;;20.00;15.75;;;;;18.63;69.14;100755.97;4945374;28;45402;-64
2021/10/20 09:02:43;;;;;;;;;16.75;13.25;;;;;18.64;69.18;100760.31;4945489;28;45321;-64
2021/10/20 09:05:10;;;;;;;;;17.50;16.25;;;;;18.66;69.69;100759.25;4945299;28;45393;-64
2021/10/20 09:07:40;;;;;;;;;20.50;16.00;;;;;18.66;69.37;100753.06;4945301;28;45331;-64
2021/10/20 09:10:06;;;;;;;;;17.00;16.50;;;;;18.67;69.50;100758.25;4945163;28;45590;-65
2021/10/20 09:12:37;;;;;;;;;16.25;16.00;;;;;18.72;69.62;100741.81;4944608;28;45502;-64
2021/10/20 09:15:08;;;;;;;;;19.00;16.25;;;;;18.75;69.93;100749.53;4945105;28;45271;-64
2021/10/20 09:17:44;;;;;;;;;18.25;15.00;;;;;18.76;69.39;100747.72;4944467;28;45427;-64
2021/10/20 09:20:27;;;;;;;;;18.50;18.00;;;;;18.79;69.72;100758.09;4944578;28;45311;-64
2021/10/20 09:23:05;;;;;;;;;16.00;15.50;;;;;18.83;70.05;100756.84;4944947;28;45582;-64
2021/10/20 09:25:46;;;;;;;;;14.50;13.75;;;;;18.82;69.91;100745.31;4944605;28;45322;-64
2021/10/20 09:28:19;;;;;;;;;18.00;15.00;;;;;18.83;69.56;100744.34;4944323;28;45492;-64
2021/10/20 09:30:45;;;;;;;;;18.50;16.75;;;;;18.88;69.91;100743.88;4944336;28;45450;-63
2021/10/20 09:33:10;;;;;;;;;16.75;15.75;;;;;18.90;69.65;100734.75;4944830;28;45330;-64
2021/10/20 09:35:37;;;;;;;;;14.75;10.00;;;;;18.91;69.67;100740.94;4944964;28;45334;-63
2021/10/20 09:38:04;;;;;;;;;17.50;15.75;;;;;18.89;69.81;100746.44;4944748;28;45379;-63
2021/10/20 09:40:46;;;;;;;;;18.25;15.50;;;;;18.92;69.65;100742.63;4944342;28;45473;-63
2021/10/20 09:43:15;;;;;;;;;16.75;15.00;;;;;18.95;69.49;100742.31;4944632;28;45333;-63
2021/10/20 09:45:42;;;;;;;;;18.75;14.75;;;;;19.00;70.19;100740.06;4944590;28;45474;-63
2021/10/20 09:48:14;;;;;;;;;16.50;15.50;;;;;19.02;69.55;100735.41;4944171;28;45362;-63
2021/10/20 09:51:07;;;;;;;;;19.75;16.00;;;;;19.03;69.79;100746.94;4944368;28;45280;-63
2021/10/20 09:53:35;;;;;;;;;21.00;18.25;;;;;19.02;69.78;100735.41;4944188;28;45339;-63
2021/10/20 09:56:31;;;;;;;;;17.50;15.00;;;;;19.02;69.44;100729.25;4944347;28;45588;-63
2021/10/20 09:58:58;;;;;;;;;16.75;15.25;;;;;19.03;69.53;100722.91;4943868;28;45354;-62
2021/10/20 10:01:26;;;;;;;;;15.25;15.25;;;;;19.04;69.97;100708.56;4944031;28;45208;-62
2021/10/20 10:03:53;;;;;;;;;18.00;16.00;;;;;19.08;69.75;100715.31;4944338;28;45333;-63
2021/10/20 10:06:19;;;;;;;;;17.00;14.50;;;;;19.14;69.67;100712.06;4944243;28;45340;-64
2021/10/20 10:08:46;;;;;;;;;14.25;14.25;;;;;19.23;69.77;100706.66;4943441;28;45210;-64
2021/10/20 10:11:11;;;;;;;;;17.75;16.00;;;;;19.30;69.19;100701.59;4944310;28;45244;-65
2021/10/20 10:13:49;;;;;;;;;16.50;16.50;;;;;19.38;69.14;100698.19;4944445;28;45314;-64
2021/10/20 10:16:19;;;;;;;;;18.25;16.25;;;;;19.40;69.09;100709.53;4944359;28;45323;-65
2021/10/20 10:18:45;;;;;;;;;12.00;11.00;;;;;19.42;68.77;100705.72;4944429;28;47279;-64
2021/10/20 10:21:33;;;;;;;;;19.50;18.00;;;;;19.42;68.71;100705.72;4944282;28;45244;-64
2021/10/20 10:24:01;;;;;;;;;16.00;13.25;;;;;19.41;68.35;100709.38;4944262;28;45284;-65
2021/10/20 10:26:28;;;;;;;;;17.50;13.75;;;;;19.41;68.52;100701.38;4944376;28;45532;-64
2021/10/20 10:29:12;;;;;;;;;20.25;15.00;;;;;19.45;68.78;100708.13;4944327;28;45293;-64
2021/10/20 10:31:42;;;;;;;;;15.75;13.25;;;;;19.46;68.39;100696.44;4943971;28;45377;-64
2021/10/20 10:34:18;;;;;;;;;15.50;14.00;;;;;19.48;68.32;100696.28;4944009;28;45237;-64
2021/10/20 10:36:55;;;;;;;;;13.25;12.00;;;;;19.49;68.49;100693.44;4944105;28;45413;-65
2021/10/20 10:39:22;;;;;;;;;16.00;13.50;;;;;19.53;68.42;100691.34;4943762;28;46375;-64
2021/10/20 10:41:52;;;;;;;;;14.75;14.75;;;;;19.54;68.36;100685.00;4944016;28;45417;-64
2021/10/20 10:44:23;;;;;;;;;13.75;13.25;;;;;19.56;68.05;100700.88;4943956;28;45264;-64
2021/10/20 10:47:26;;;;;;;;;11.25;11.00;;;;;19.56;68.57;100688.34;4943950;28;45307;-64
2021/10/20 10:49:54;;;;;;;;;12.75;11.25;;;;;19.58;68.69;100686.41;4943741;28;46219;-64
2021/10/20 10:52:29;;;;;;;;;30.50;28.00;;;;;19.62;68.40;100682.44;4943927;28;45188;-64
2021/10/20 10:55:09;;;;;;;;;18.00;16.25;;;;;19.68;68.41;100673.00;4943999;28;45171;-64
2021/10/20 10:57:42;;;;;;;;;19.25;14.75;;;;;19.73;68.04;100660.84;4943814;28;45302;-64
2021/10/20 11:00:17;;;;;;;;;13.75;13.75;;;;;19.79;68.26;100673.59;4943737;28;45350;-64
2021/10/20 11:02:50;;;;;;;;;15.25;11.00;;;;;19.84;68.05;100675.00;4943812;28;45247;-64
2021/10/20 11:05:21;;;;;;;;;14.50;12.25;;;;;19.86;67.87;100668.50;4943781;28;45223;-64
2021/10/20 11:07:49;;;;;;;;;13.75;12.50;;;;;19.88;68.03;100669.19;4942232;28;45570;-65
2021/10/20 11:10:16;;;;;;;;;13.75;11.25;;;;;19.97;67.96;100670.09;4947377;28;45350;-61
2021/10/20 11:12:50;;;;;;;;;16.75;15.00;;;;;20.01;67.91;100663.44;4947985;28;45255;-70